createdAt,value
2019-04-22T00:00:46.587Z,13.40
2019-04-22T00:01:45.556Z,13.80
2019-04-22T00:02:52.598Z,12.60
2019-04-22T00:03:52.494Z,13.40
2019-04-22T00:04:56.238Z,15.20
2019-04-22T00:06:06.569Z,13.70
2019-04-22T00:07:03.102Z,14.70
2019-04-22T00:08:11.689Z,13.00
2019-04-22T00:09:11.158Z,13.60
2019-04-22T00:10:11.876Z,13.20
2019-04-22T00:11:12.577Z,12.40
2019-04-22T00:12:13.803Z,14.20
2019-04-22T00:13:12.635Z,13.40
2019-04-22T00:14:08.361Z,12.70
2019-04-22T00:15:03.734Z,12.40
2019-04-22T00:16:07.289Z,12.80
2019-04-22T00:18:13.243Z,13.10
2019-04-22T00:19:15.459Z,13.20
2019-04-22T00:20:08.595Z,13.00
2019-04-22T00:21:12.542Z,12.60
2019-04-22T00:22:07.720Z,13.10
2019-04-22T00:23:03.385Z,13.80
2019-04-22T00:24:08.791Z,12.10
2019-04-22T00:25:14.417Z,12.20
2019-04-22T00:26:12.704Z,12.60
2019-04-22T00:27:13.784Z,13.00
2019-04-22T00:28:08.608Z,12.80
2019-04-22T00:29:24.411Z,12.00
2019-04-22T00:30:13.555Z,12.50
2019-04-22T00:31:10.206Z,12.60
2019-04-22T00:32:05.492Z,13.60
2019-04-22T00:33:02.863Z,13.80
2019-04-22T00:34:03.172Z,14.30
2019-04-22T00:35:07.205Z,12.90
2019-04-22T00:36:08.821Z,13.20
2019-04-22T00:37:13.362Z,12.60
2019-04-22T00:38:14.297Z,13.50
2019-04-22T00:39:07.099Z,13.10
2019-04-22T00:40:07.349Z,13.50
2019-04-22T00:41:08.212Z,13.00
2019-04-22T00:42:08.089Z,13.00
2019-04-22T00:43:10.088Z,13.30
2019-04-22T00:44:15.691Z,12.30
2019-04-22T00:45:09.477Z,12.70
2019-04-22T00:46:01.167Z,13.30
2019-04-22T00:47:14.572Z,13.00
2019-04-22T00:48:10.737Z,13.00
2019-04-22T00:49:54.069Z,13.00
2019-04-22T00:51:12.438Z,13.00
2019-04-22T00:53:12.236Z,12.80
2019-04-22T00:54:05.943Z,12.70
2019-04-22T00:55:12.229Z,12.80
2019-04-22T00:56:05.634Z,12.50
2019-04-22T00:57:05.436Z,13.20
2019-04-22T00:58:08.312Z,13.80
2019-04-22T00:59:01.514Z,13.60
2019-04-22T01:00:07.235Z,12.70
2019-04-22T01:01:10.390Z,12.50
2019-04-22T01:02:06.789Z,13.10
2019-04-22T01:03:17.384Z,12.90
2019-04-22T01:05:08.111Z,12.90
2019-04-22T01:06:03.001Z,13.50
2019-04-22T01:07:09.436Z,13.10
2019-04-22T01:08:07.122Z,13.10
2019-04-22T01:09:08.758Z,12.30
2019-04-22T01:10:06.934Z,12.60
2019-04-22T01:11:10.265Z,13.10
2019-04-22T01:12:07.628Z,13.70
2019-04-22T01:13:04.722Z,13.20
2019-04-22T01:14:04.523Z,13.40
2019-04-22T01:16:04.505Z,12.00
2019-04-22T01:17:00.118Z,12.00
2019-04-22T01:18:03.956Z,12.80
2019-04-22T01:18:59.137Z,12.30
2019-04-22T01:20:04.966Z,12.90
2019-04-22T01:21:58.394Z,12.90
2019-04-22T01:23:02.059Z,12.80
2019-04-22T01:23:57.740Z,12.70
2019-04-22T01:24:55.801Z,12.90
2019-04-22T01:25:59.630Z,12.40
2019-04-22T01:26:53.694Z,12.90
2019-04-22T01:27:54.666Z,12.90
2019-04-22T01:28:50.018Z,13.40
2019-04-22T01:29:51.796Z,13.20
2019-04-22T01:30:45.960Z,13.20
2019-04-22T01:31:40.020Z,13.10
2019-04-22T01:32:41.833Z,12.60
2019-04-22T01:33:43.904Z,12.70
2019-04-22T01:34:52.619Z,12.00
2019-04-22T01:35:58.447Z,12.50
2019-04-22T01:36:57.699Z,12.60
2019-04-22T01:37:54.403Z,12.10
2019-04-22T01:38:58.335Z,13.00
2019-04-22T01:40:04.471Z,12.40
2019-04-22T01:41:07.214Z,12.30
2019-04-22T01:42:05.654Z,12.70
2019-04-22T01:43:16.527Z,12.90
2019-04-22T01:44:19.433Z,12.40
2019-04-22T01:44:56.973Z,12.90
2019-04-22T01:46:02.993Z,13.00
2019-04-22T01:47:08.231Z,12.70
2019-04-22T01:48:02.883Z,13.20
2019-04-22T01:48:59.578Z,12.10
2019-04-22T01:49:59.562Z,12.10
2019-04-22T01:50:56.198Z,12.20
2019-04-22T01:52:17.037Z,12.30
2019-04-22T01:53:06.401Z,12.10
2019-04-22T01:54:07.251Z,12.90
2019-04-22T01:55:04.117Z,12.70
2019-04-22T01:56:02.124Z,12.60
2019-04-22T01:56:59.936Z,11.90
2019-04-22T01:57:59.863Z,12.50
2019-04-22T01:58:54.422Z,12.80
2019-04-22T01:59:54.912Z,11.70
2019-04-22T02:01:09.531Z,12.60
2019-04-22T02:02:03.162Z,11.30
2019-04-22T02:03:04.219Z,11.60
2019-04-22T02:04:01.309Z,12.20
2019-04-22T02:05:07.344Z,11.20
2019-04-22T02:06:02.451Z,11.30
2019-04-22T02:07:01.812Z,11.90
2019-04-22T02:08:04.130Z,12.00
2019-04-22T02:09:24.062Z,12.00
2019-04-22T02:11:01.050Z,11.50
2019-04-22T02:12:00.498Z,12.40
2019-04-22T02:13:01.939Z,11.70
2019-04-22T02:14:07.705Z,11.10
2019-04-22T02:14:59.440Z,11.60
2019-04-22T02:16:03.516Z,11.40
2019-04-22T02:17:06.762Z,11.10
2019-04-22T02:18:03.277Z,10.40
2019-04-22T02:19:01.238Z,11.60
2019-04-22T02:20:05.037Z,11.00
2019-04-22T02:20:58.011Z,11.50
2019-04-22T02:21:56.168Z,11.40
2019-04-22T02:23:19.315Z,11.40
2019-04-22T02:24:05.209Z,10.70
2019-04-22T02:24:59.839Z,10.80
2019-04-22T02:26:01.128Z,11.10
2019-04-22T02:26:58.174Z,12.20
2019-04-22T02:28:05.027Z,11.00
2019-04-22T02:29:00.095Z,11.60
2019-04-22T02:29:52.290Z,11.60
2019-04-22T02:33:25.152Z,10.90
2019-04-22T02:35:07.540Z,11.20
2019-04-22T02:36:16.736Z,10.40
2019-04-22T02:37:04.874Z,10.90
2019-04-22T02:38:08.085Z,10.50
2019-04-22T02:39:05.600Z,10.60
2019-04-22T02:40:03.737Z,10.70
2019-04-22T02:41:21.023Z,11.50
2019-04-22T02:42:03.289Z,11.00
2019-04-22T02:43:07.372Z,11.20
2019-04-22T02:44:08.452Z,11.00
2019-04-22T02:46:26.743Z,11.10
2019-04-22T02:47:09.795Z,11.60
2019-04-22T02:48:13.136Z,13.30
2019-04-22T02:49:18.408Z,11.90
2019-04-22T02:50:01.850Z,11.10
2019-04-22T02:51:04.287Z,10.50
2019-04-22T02:52:00.426Z,11.30
2019-04-22T02:53:01.935Z,11.10
2019-04-22T02:54:22.174Z,11.30
2019-04-22T02:55:01.380Z,11.30
2019-04-22T02:56:15.713Z,11.40
2019-04-22T02:57:10.172Z,11.30
2019-04-22T02:57:57.925Z,10.90
2019-04-22T03:00:05.600Z,11.60
2019-04-22T03:01:09.499Z,11.10
2019-04-22T03:01:54.124Z,11.30
2019-04-22T03:03:18.344Z,11.70
2019-04-22T03:05:00.243Z,12.70
2019-04-22T03:06:45.987Z,11.90
2019-04-22T03:08:06.801Z,11.10
2019-04-22T03:09:10.878Z,12.70
2019-04-22T03:10:02.625Z,10.90
2019-04-22T03:11:07.406Z,11.30
2019-04-22T03:13:01.066Z,12.00
2019-04-22T03:14:01.311Z,11.60
2019-04-22T03:15:00.007Z,11.50
2019-04-22T03:16:08.317Z,11.80
2019-04-22T03:17:18.688Z,11.60
2019-04-22T03:18:01.177Z,10.90
2019-04-22T03:20:06.330Z,11.60
2019-04-22T03:21:17.973Z,11.80
2019-04-22T03:23:05.678Z,11.80
2019-04-22T03:24:17.950Z,11.40
2019-04-22T03:25:33.209Z,10.80
2019-04-22T03:26:20.048Z,11.70
2019-04-22T03:26:58.975Z,11.60
2019-04-22T03:27:52.196Z,11.80
2019-04-22T03:28:56.415Z,11.30
2019-04-22T03:30:16.326Z,11.30
2019-04-22T03:31:06.512Z,11.20
2019-04-22T03:32:32.677Z,11.40
2019-04-22T03:34:42.225Z,11.30
2019-04-22T03:36:41.410Z,10.90
2019-04-22T03:37:20.525Z,11.20
2019-04-22T03:39:15.112Z,11.90
2019-04-22T03:40:09.388Z,12.40
2019-04-22T03:41:04.827Z,12.10
2019-04-22T03:45:01.241Z,12.20
2019-04-22T03:45:46.502Z,11.50
2019-04-22T03:47:59.603Z,11.60
2019-04-22T03:49:09.372Z,11.50
2019-04-22T03:50:55.030Z,11.40
2019-04-22T03:52:05.645Z,11.30
2019-04-22T03:53:03.971Z,10.80
2019-04-22T03:54:26.374Z,11.80
2019-04-22T03:56:10.318Z,11.70
2019-04-22T03:59:09.920Z,10.90
2019-04-22T04:00:00.471Z,11.40
2019-04-22T04:00:55.556Z,12.40
2019-04-22T04:04:06.726Z,11.80
2019-04-22T04:04:49.569Z,12.10
2019-04-22T04:06:08.669Z,11.20
2019-04-22T04:08:05.834Z,14.10
2019-04-22T04:09:04.230Z,11.40
2019-04-22T04:10:00.987Z,12.20
2019-04-22T04:13:01.926Z,12.80
2019-04-22T04:14:01.237Z,11.20
2019-04-22T04:15:06.020Z,11.30
2019-04-22T04:15:52.641Z,11.70
2019-04-22T04:17:02.639Z,11.80
2019-04-22T04:17:56.192Z,12.30
2019-04-22T04:19:08.366Z,12.40
2019-04-22T04:20:05.726Z,12.30
2019-04-22T04:21:18.788Z,11.70
2019-04-22T04:24:11.285Z,11.70
2019-04-22T04:25:08.371Z,11.70
2019-04-22T04:29:10.057Z,12.30
2019-04-22T04:31:18.770Z,12.00
2019-04-22T04:32:09.952Z,12.70
2019-04-22T04:34:00.432Z,11.50
2019-04-22T04:35:14.822Z,11.60
2019-04-22T04:37:07.432Z,11.90
2019-04-22T04:37:55.760Z,12.20
2019-04-22T04:38:51.821Z,11.50
2019-04-22T04:40:06.834Z,11.30
2019-04-22T04:40:50.873Z,12.60
2019-04-22T04:42:54.370Z,11.80
2019-04-22T04:44:50.914Z,11.80
2019-04-22T04:45:54.679Z,12.30
2019-04-22T04:47:00.487Z,11.20
2019-04-22T04:48:02.492Z,12.70
2019-04-22T04:49:00.953Z,12.20
2019-04-22T04:53:06.347Z,11.90
2019-04-22T04:53:57.037Z,11.30
2019-04-22T04:54:59.394Z,11.60
2019-04-22T04:55:51.875Z,11.70
2019-04-22T04:56:50.386Z,12.90
2019-04-22T04:58:13.796Z,12.10
2019-04-22T04:59:16.897Z,11.60
2019-04-22T05:00:28.748Z,12.10
2019-04-22T05:00:57.165Z,13.50
2019-04-22T05:02:52.470Z,12.50
2019-04-22T05:05:08.324Z,12.30
2019-04-22T05:05:54.641Z,12.10
2019-04-22T05:07:05.389Z,13.40
2019-04-22T05:07:48.325Z,12.30
2019-04-22T05:09:53.209Z,12.50
2019-04-22T05:11:03.506Z,12.50
2019-04-22T05:12:57.394Z,11.90
2019-04-22T05:14:52.577Z,12.20
2019-04-22T05:15:59.776Z,12.70
2019-04-22T05:16:51.117Z,12.20
2019-04-22T05:17:54.718Z,12.20
2019-04-22T05:18:53.023Z,12.20
2019-04-22T05:19:47.721Z,11.90
2019-04-22T05:21:11.160Z,12.20
2019-04-22T05:21:50.538Z,11.80
2019-04-22T05:22:44.593Z,11.60
2019-04-22T05:23:50.585Z,12.30
2019-04-22T05:24:42.643Z,11.80
2019-04-22T05:25:41.382Z,12.20
2019-04-22T05:27:47.160Z,11.60
2019-04-22T05:28:42.937Z,12.60
2019-04-22T05:30:00.138Z,13.00
2019-04-22T05:30:40.649Z,12.00
2019-04-22T05:31:47.907Z,12.00
2019-04-22T05:32:46.183Z,12.40
2019-04-22T05:33:42.771Z,11.70
2019-04-22T05:34:49.523Z,11.30
2019-04-22T05:35:39.500Z,13.30
2019-04-22T05:36:40.245Z,11.40
2019-04-22T05:37:45.756Z,13.60
2019-04-22T05:38:49.509Z,12.20
2019-04-22T05:39:42.376Z,11.70
2019-04-22T05:40:34.886Z,11.30
2019-04-22T05:41:41.515Z,11.70
2019-04-22T05:42:39.445Z,11.70
2019-04-22T05:43:42.569Z,12.80
2019-04-22T05:44:47.996Z,11.30
2019-04-22T05:45:40.511Z,13.00
2019-04-22T05:46:44.033Z,11.80
2019-04-22T05:47:38.969Z,12.10
2019-04-22T05:48:43.929Z,11.90
2019-04-22T05:49:39.341Z,11.10
2019-04-22T05:50:37.317Z,11.10
2019-04-22T05:51:42.254Z,10.50
2019-04-22T05:52:43.544Z,11.30
2019-04-22T05:53:32.592Z,11.50
2019-04-22T05:54:38.996Z,11.30
2019-04-22T05:55:41.991Z,11.50
2019-04-22T05:56:41.221Z,11.20
2019-04-22T05:57:37.244Z,11.10
2019-04-22T05:58:46.460Z,11.50
2019-04-22T06:01:05.710Z,11.20
2019-04-22T06:01:57.296Z,11.30
2019-04-22T06:03:49.286Z,12.60
2019-04-22T06:04:48.470Z,11.40
2019-04-22T06:05:43.888Z,11.60
2019-04-22T06:06:37.870Z,10.00
2019-04-22T06:07:40.319Z,12.80
2019-04-22T06:08:42.535Z,12.90
2019-04-22T06:09:36.814Z,12.20
2019-04-22T06:12:31.463Z,10.60
2019-04-22T06:13:36.895Z,10.50
2019-04-22T06:14:32.844Z,10.70
2019-04-22T06:15:36.379Z,11.50
2019-04-22T06:16:42.326Z,10.50
2019-04-22T06:17:37.886Z,11.10
2019-04-22T06:18:38.553Z,11.50
2019-04-22T06:19:38.546Z,10.60
2019-04-22T06:20:50.085Z,11.10
2019-04-22T06:21:39.888Z,12.30
2019-04-22T06:22:43.315Z,10.70
2019-04-22T06:23:40.320Z,10.70
2019-04-22T06:24:33.762Z,11.80
2019-04-22T06:26:05.563Z,11.00
2019-04-22T06:26:53.999Z,10.50
2019-04-22T06:27:45.299Z,12.70
2019-04-22T06:28:41.409Z,10.30
2019-04-22T06:29:40.245Z,10.10
2019-04-22T06:31:52.574Z,9.90
2019-04-22T06:32:53.801Z,9.60
2019-04-22T06:33:40.561Z,9.90
2019-04-22T06:34:35.690Z,9.80
2019-04-22T06:37:43.271Z,9.60
2019-04-22T06:39:36.930Z,9.10
2019-04-22T06:40:41.974Z,8.50
2019-04-22T06:41:33.598Z,8.50
2019-04-22T06:42:39.998Z,8.90
2019-04-22T06:43:49.589Z,8.30
2019-04-22T06:44:36.504Z,8.00
2019-04-22T06:45:34.397Z,9.00
2019-04-22T06:48:36.267Z,8.30
2019-04-22T06:49:35.583Z,7.90
2019-04-22T06:50:44.831Z,8.30
2019-04-22T06:51:37.509Z,7.90
2019-04-22T06:52:49.632Z,7.80
2019-04-22T06:53:35.953Z,8.20
2019-04-22T06:54:48.959Z,7.70
2019-04-22T06:55:45.910Z,8.50
2019-04-22T06:56:37.096Z,7.30
2019-04-22T06:57:39.456Z,7.90
2019-04-22T06:58:36.605Z,7.90
2019-04-22T06:59:37.656Z,7.90
2019-04-22T07:00:36.654Z,7.50
2019-04-22T07:01:39.060Z,7.50
2019-04-22T07:02:45.257Z,7.20
2019-04-22T07:03:45.264Z,8.10
2019-04-22T07:04:33.663Z,7.60
2019-04-22T07:05:33.035Z,7.00
2019-04-22T07:07:38.396Z,6.60
2019-04-22T07:09:10.505Z,6.60
2019-04-22T07:10:42.022Z,7.00
2019-04-22T07:11:29.689Z,6.50
2019-04-22T07:12:34.672Z,5.80
2019-04-22T07:13:34.468Z,7.40
2019-04-22T07:14:37.111Z,5.90
2019-04-22T07:15:46.252Z,6.10
2019-04-22T07:16:39.334Z,6.40
2019-04-22T07:17:35.758Z,8.20
2019-04-22T07:18:35.955Z,7.40
2019-04-22T07:19:33.543Z,6.30
2019-04-22T07:20:36.331Z,6.20
2019-04-22T07:21:32.159Z,5.60
2019-04-22T07:22:33.798Z,5.60
2019-04-22T07:23:33.099Z,7.50
2019-04-22T07:24:40.581Z,6.60
2019-04-22T07:25:36.316Z,6.80
2019-04-22T07:26:33.547Z,6.90
2019-04-22T07:27:34.452Z,6.30
2019-04-22T07:28:50.652Z,6.10
2019-04-22T07:29:32.594Z,7.40
2019-04-22T07:30:32.360Z,5.90
2019-04-22T07:31:37.220Z,7.00
2019-04-22T07:32:53.339Z,6.30
2019-04-22T07:34:33.352Z,10.20
2019-04-22T07:35:36.962Z,6.00
2019-04-22T07:36:47.395Z,6.60
2019-04-22T07:37:37.171Z,6.40
2019-04-22T07:39:35.484Z,5.90
2019-04-22T07:40:37.297Z,6.30
2019-04-22T07:41:32.865Z,5.30
2019-04-22T07:42:34.354Z,6.90
2019-04-22T07:43:53.068Z,6.20
2019-04-22T07:44:43.302Z,5.30
2019-04-22T07:46:39.075Z,6.40
2019-04-22T07:47:40.933Z,5.80
2019-04-22T07:49:39.177Z,5.90
2019-04-22T07:50:44.377Z,5.80
2019-04-22T07:51:41.351Z,7.00
2019-04-22T07:52:34.892Z,5.80
2019-04-22T07:53:27.903Z,5.30
2019-04-22T07:54:36.881Z,6.80
2019-04-22T07:55:32.759Z,6.30
2019-04-22T07:56:29.450Z,8.70
2019-04-22T07:57:44.436Z,5.70
2019-04-22T07:58:32.138Z,8.00
2019-04-22T07:59:28.079Z,5.50
2019-04-22T08:00:29.101Z,6.70
2019-04-22T08:01:41.828Z,8.40
2019-04-22T08:02:33.007Z,5.10
2019-04-22T08:03:38.118Z,6.10
2019-04-22T08:04:49.447Z,8.00
2019-04-22T08:05:34.066Z,5.40
2019-04-22T08:06:29.318Z,5.90
2019-04-22T08:07:30.399Z,6.50
2019-04-22T08:08:29.137Z,7.00
2019-04-22T08:09:40.806Z,5.00
2019-04-22T08:12:33.247Z,5.50
2019-04-22T08:13:32.662Z,6.60
2019-04-22T08:14:35.192Z,6.40
2019-04-22T08:15:33.155Z,5.40
2019-04-22T08:16:28.520Z,6.60
2019-04-22T08:18:47.330Z,5.30
2019-04-22T08:19:28.738Z,4.90
2019-04-22T08:20:30.798Z,6.50
2019-04-22T08:21:29.788Z,6.30
2019-04-22T08:22:27.984Z,7.10
2019-04-22T08:23:32.647Z,4.80
2019-04-22T08:24:37.135Z,4.80
2019-04-22T08:25:36.742Z,5.90
2019-04-22T08:26:27.560Z,4.70
2019-04-22T08:27:31.991Z,4.80
2019-04-22T08:28:31.989Z,4.40
2019-04-22T08:29:37.656Z,5.20
2019-04-22T08:32:28.605Z,5.00
2019-04-22T08:33:34.826Z,4.60
2019-04-22T08:34:26.127Z,5.30
2019-04-22T08:35:40.868Z,5.40
2019-04-22T08:37:10.266Z,4.40
2019-04-22T08:39:31.159Z,6.80
2019-04-22T08:42:34.750Z,5.50
2019-04-22T08:43:37.879Z,4.90
2019-04-22T08:44:40.240Z,4.60
2019-04-22T08:45:40.131Z,5.90
2019-04-22T08:46:40.103Z,4.70
2019-04-22T08:47:33.486Z,7.30
2019-04-22T08:48:29.390Z,4.60
2019-04-22T08:49:23.168Z,7.10
2019-04-22T08:50:28.369Z,5.10
2019-04-22T08:51:24.996Z,7.00
2019-04-22T08:52:30.257Z,5.40
2019-04-22T08:53:35.912Z,5.60
2019-04-22T08:54:28.232Z,6.40
2019-04-22T08:55:32.878Z,5.60
2019-04-22T08:57:34.821Z,4.60
2019-04-22T08:58:27.346Z,4.60
2019-04-22T08:59:21.774Z,4.80
2019-04-22T09:00:29.256Z,4.10
2019-04-22T09:01:27.087Z,5.90
2019-04-22T09:02:38.612Z,5.90
2019-04-22T09:03:28.324Z,4.30
2019-04-22T09:04:19.192Z,4.40
2019-04-22T09:05:44.881Z,4.10
2019-04-22T09:07:28.835Z,4.60
2019-04-22T09:08:29.651Z,5.30
2019-04-22T09:09:28.444Z,7.70
2019-04-22T09:10:32.828Z,7.10
2019-04-22T09:11:27.061Z,5.00
2019-04-22T09:12:35.853Z,5.50
2019-04-22T09:13:30.161Z,4.50
2019-04-22T09:14:31.313Z,7.20
2019-04-22T09:15:30.979Z,6.10
2019-04-22T09:16:32.091Z,7.10
2019-04-22T09:17:39.837Z,5.70
2019-04-22T09:18:29.398Z,5.00
2019-04-22T09:19:22.738Z,5.20
2019-04-22T09:20:26.543Z,5.40
2019-04-22T09:21:34.406Z,8.40
2019-04-22T09:22:21.829Z,5.80
2019-04-22T09:23:30.428Z,5.20
2019-04-22T09:24:23.675Z,5.90
2019-04-22T09:25:27.480Z,8.70
2019-04-22T09:26:34.733Z,5.20
2019-04-22T09:28:23.050Z,6.20
2019-04-22T09:29:32.595Z,5.00
2019-04-22T09:30:27.731Z,5.30
2019-04-22T09:31:24.245Z,5.30
2019-04-22T09:32:31.722Z,6.70
2019-04-22T09:33:28.989Z,5.10
2019-04-22T09:34:29.785Z,5.60
2019-04-22T09:35:24.787Z,6.20
2019-04-22T09:36:29.676Z,5.30
2019-04-22T09:37:26.918Z,6.00
2019-04-22T09:38:32.939Z,5.40
2019-04-22T09:40:31.488Z,6.50
2019-04-22T09:41:27.680Z,4.80
2019-04-22T09:42:24.629Z,5.10
2019-04-22T09:43:25.846Z,5.50
2019-04-22T09:44:21.728Z,5.80
2019-04-22T09:45:22.916Z,8.10
2019-04-22T09:46:33.149Z,5.10
2019-04-22T09:47:32.080Z,6.00
2019-04-22T09:48:33.620Z,5.80
2019-04-22T09:49:18.940Z,5.60
2019-04-22T09:51:25.341Z,5.70
2019-04-22T09:52:23.990Z,7.10
2019-04-22T09:53:22.446Z,5.70
2019-04-22T09:54:30.994Z,7.80
2019-04-22T09:55:26.824Z,5.90
2019-04-22T09:56:23.966Z,6.10
2019-04-22T09:57:20.986Z,7.00
2019-04-22T09:58:29.581Z,5.50
2019-04-22T09:59:20.207Z,5.80
2019-04-22T10:00:22.968Z,5.90
2019-04-22T10:01:39.052Z,5.40
2019-04-22T10:02:27.602Z,6.20
2019-04-22T10:03:19.945Z,8.60
2019-04-22T10:04:18.594Z,6.70
2019-04-22T10:05:21.188Z,6.80
2019-04-22T10:07:23.992Z,5.20
2019-04-22T10:08:33.858Z,11.10
2019-04-22T10:10:18.806Z,6.60
2019-04-22T10:11:26.959Z,5.90
2019-04-22T10:12:26.374Z,5.50
2019-04-22T10:13:33.103Z,5.20
2019-04-22T10:14:24.821Z,4.80
2019-04-22T10:15:19.706Z,4.90
2019-04-22T10:16:28.676Z,8.20
2019-04-22T10:17:17.611Z,6.80
2019-04-22T10:18:26.202Z,7.10
2019-04-22T10:19:23.248Z,4.80
2019-04-22T10:20:24.872Z,5.50
2019-04-22T10:21:24.299Z,5.00
2019-04-22T10:22:29.189Z,7.40
2019-04-22T10:23:18.972Z,6.60
2019-04-22T10:24:19.221Z,5.20
2019-04-22T10:25:23.405Z,6.60
2019-04-22T10:26:22.065Z,8.30
2019-04-22T10:27:21.148Z,5.20
2019-04-22T10:28:23.559Z,6.20
2019-04-22T10:29:24.925Z,6.40
2019-04-22T10:30:22.024Z,5.40
2019-04-22T10:31:29.433Z,6.20
2019-04-22T10:32:20.615Z,6.60
2019-04-22T10:33:14.835Z,6.60
2019-04-22T10:34:08.250Z,4.60
2019-04-22T10:35:02.418Z,5.10
2019-04-22T10:35:55.310Z,4.60
2019-04-22T10:36:59.969Z,4.50
2019-04-22T10:37:54.745Z,4.90
2019-04-22T10:38:54.819Z,6.10
2019-04-22T10:40:00.185Z,4.60
2019-04-22T10:40:54.605Z,4.80
2019-04-22T10:41:54.673Z,5.60
2019-04-22T10:42:54.424Z,5.00
2019-04-22T10:43:55.136Z,4.80
2019-04-22T10:44:55.456Z,6.70
2019-04-22T10:45:54.531Z,7.40
2019-04-22T10:46:54.166Z,5.40
2019-04-22T10:47:54.305Z,6.70
2019-04-22T10:48:54.590Z,5.20
2019-04-22T10:49:54.157Z,5.20
2019-04-22T10:50:54.795Z,5.10
2019-04-22T10:51:54.953Z,4.80
2019-04-22T10:52:55.152Z,6.20
2019-04-22T10:53:53.697Z,5.10
2019-04-22T10:54:53.651Z,5.90
2019-04-22T10:55:54.372Z,6.00
2019-04-22T10:56:54.880Z,4.50
2019-04-22T10:57:54.716Z,4.60
2019-04-22T10:58:53.368Z,7.10
2019-04-22T10:59:54.414Z,7.00
2019-04-22T11:00:54.335Z,5.40
2019-04-22T11:01:53.211Z,5.70
2019-04-22T11:02:53.750Z,5.20
2019-04-22T11:03:53.193Z,7.20
2019-04-22T11:04:54.262Z,4.60
2019-04-22T11:05:54.196Z,5.00
2019-04-22T11:06:57.636Z,8.80
2019-04-22T11:07:57.902Z,5.10
2019-04-22T11:08:57.812Z,4.30
2019-04-22T11:10:01.149Z,6.30
2019-04-22T11:11:09.382Z,6.40
2019-04-22T11:12:01.420Z,4.50
2019-04-22T11:12:52.438Z,5.50
2019-04-22T11:13:53.672Z,8.70
2019-04-22T11:14:53.732Z,4.50
2019-04-22T11:15:52.961Z,6.60
2019-04-22T11:16:53.340Z,8.40
2019-04-22T11:17:53.438Z,4.20
2019-04-22T11:18:52.040Z,5.30
2019-04-22T11:19:53.251Z,5.00
2019-04-22T11:20:51.907Z,4.70
2019-04-22T11:22:05.038Z,4.40
2019-04-22T11:22:53.045Z,3.80
2019-04-22T11:23:52.516Z,5.50
2019-04-22T11:24:52.898Z,4.80
2019-04-22T11:25:51.990Z,4.50
2019-04-22T11:26:52.730Z,5.30
2019-04-22T11:27:51.510Z,4.40
2019-04-22T11:28:51.776Z,4.20
2019-04-22T11:29:51.315Z,6.00
2019-04-22T11:30:52.323Z,6.80
2019-04-22T11:31:52.423Z,4.40
2019-04-22T11:32:51.111Z,6.10
2019-04-22T11:33:52.357Z,4.60
2019-04-22T11:34:51.222Z,6.40
2019-04-22T11:35:52.110Z,5.60
2019-04-22T11:36:50.891Z,4.20
2019-04-22T11:37:50.866Z,4.80
2019-04-22T11:38:56.419Z,7.90
2019-04-22T11:40:04.860Z,5.30
2019-04-22T11:40:53.989Z,6.70
2019-04-22T11:41:51.806Z,6.00
2019-04-22T11:42:50.463Z,5.50
2019-04-22T11:43:51.341Z,4.90
2019-04-22T11:44:50.975Z,5.30
2019-04-22T11:45:51.202Z,4.00
2019-04-22T11:46:51.546Z,4.00
2019-04-22T11:47:51.046Z,6.10
2019-04-22T11:48:50.070Z,4.00
2019-04-22T11:49:50.042Z,5.30
2019-04-22T11:50:49.926Z,5.70
2019-04-22T11:51:49.958Z,5.60
2019-04-22T11:52:50.988Z,4.70
2019-04-22T11:53:49.730Z,4.40
2019-04-22T11:54:50.679Z,5.20
2019-04-22T11:55:50.823Z,4.90
2019-04-22T11:56:49.609Z,4.30
2019-04-22T11:57:49.869Z,5.20
2019-04-22T11:58:50.727Z,5.50
2019-04-22T11:59:49.336Z,4.60
2019-04-22T12:00:50.099Z,5.20
2019-04-22T12:01:49.228Z,5.50
2019-04-22T12:02:49.369Z,3.80
2019-04-22T12:03:49.555Z,4.20
2019-04-22T12:04:49.764Z,4.80
2019-04-22T12:05:49.952Z,4.20
2019-04-22T12:06:49.725Z,4.40
2019-04-22T12:07:49.009Z,4.50
2019-04-22T12:08:50.060Z,4.10
2019-04-22T12:09:48.661Z,4.20
2019-04-22T12:10:54.264Z,5.00
2019-04-22T12:11:49.497Z,5.90
2019-04-22T12:12:50.101Z,4.00
2019-04-22T12:13:48.408Z,3.80
2019-04-22T12:14:48.346Z,4.30
2019-04-22T12:15:49.115Z,4.60
2019-04-22T12:16:49.637Z,6.00
2019-04-22T12:17:48.910Z,3.90
2019-04-22T12:18:49.313Z,5.10
2019-04-22T12:19:48.249Z,4.00
2019-04-22T12:20:47.935Z,6.00
2019-04-22T12:21:49.116Z,5.00
2019-04-22T12:22:48.927Z,6.00
2019-04-22T12:23:48.703Z,4.20
2019-04-22T12:24:48.169Z,4.70
2019-04-22T12:25:54.453Z,8.50
2019-04-22T12:26:48.395Z,5.10
2019-04-22T12:27:47.488Z,7.80
2019-04-22T12:28:48.857Z,4.80
2019-04-22T12:29:47.338Z,4.90
2019-04-22T12:30:47.929Z,4.80
2019-04-22T12:31:47.322Z,5.40
2019-04-22T12:32:48.345Z,3.80
2019-04-22T12:33:47.619Z,4.20
2019-04-22T12:34:47.195Z,3.90
2019-04-22T12:35:48.441Z,5.20
2019-04-22T12:36:46.933Z,4.60
2019-04-22T12:37:51.467Z,5.30
2019-04-22T12:38:47.534Z,3.90
2019-04-22T12:39:48.090Z,4.10
2019-04-22T12:40:53.163Z,3.40
2019-04-22T12:41:46.551Z,4.90
2019-04-22T12:42:47.165Z,5.70
2019-04-22T12:43:47.394Z,6.10
2019-04-22T12:44:47.695Z,5.20
2019-04-22T12:45:46.272Z,4.20
2019-04-22T12:46:46.265Z,4.30
2019-04-22T12:47:46.393Z,4.00
2019-04-22T12:48:46.847Z,3.80
2019-04-22T12:49:49.272Z,3.70
2019-04-22T12:50:47.769Z,3.70
2019-04-22T12:51:47.195Z,4.10
2019-04-22T12:52:53.331Z,4.60
2019-04-22T12:53:46.225Z,7.00
2019-04-22T12:54:46.912Z,5.00
2019-04-22T12:55:46.016Z,4.80
2019-04-22T12:56:45.938Z,5.60
2019-04-22T12:57:46.426Z,3.80
2019-04-22T12:58:45.848Z,4.00
2019-04-22T12:59:45.721Z,3.60
2019-04-22T13:00:45.279Z,4.00
2019-04-22T13:01:45.220Z,4.80
2019-04-22T13:02:45.154Z,4.70
2019-04-22T13:03:46.211Z,4.10
2019-04-22T13:04:46.016Z,5.20
2019-04-22T13:05:45.198Z,4.50
2019-04-22T13:06:46.070Z,4.30
2019-04-22T13:07:44.819Z,4.90
2019-04-22T13:08:45.739Z,4.10
2019-04-22T13:09:45.386Z,3.80
2019-04-22T13:10:53.678Z,5.60
2019-04-22T13:11:45.854Z,3.30
2019-04-22T13:12:44.772Z,3.90
2019-04-22T13:13:45.154Z,3.50
2019-04-22T13:14:45.536Z,3.70
2019-04-22T13:15:44.619Z,3.80
2019-04-22T13:16:44.924Z,3.50
2019-04-22T13:17:44.373Z,3.70
2019-04-22T13:18:50.189Z,4.20
2019-04-22T13:19:44.492Z,3.90
2019-04-22T13:20:44.449Z,3.50
2019-04-22T13:21:44.824Z,3.60
2019-04-22T13:22:45.224Z,5.40
2019-04-22T13:23:44.519Z,4.00
2019-04-22T13:24:43.876Z,3.60
2019-04-22T13:25:44.868Z,3.50
2019-04-22T13:26:45.158Z,3.70
2019-04-22T13:27:44.889Z,3.70
2019-04-22T13:28:43.412Z,4.60
2019-04-22T13:29:43.519Z,3.70
2019-04-22T13:30:44.357Z,3.60
2019-04-22T13:31:44.619Z,3.50
2019-04-22T13:32:43.164Z,4.40
2019-04-22T13:33:43.165Z,5.20
2019-04-22T13:34:48.134Z,4.00
2019-04-22T13:35:43.808Z,4.50
2019-04-22T13:36:45.387Z,6.30
2019-04-22T13:37:43.345Z,4.60
2019-04-22T13:38:42.977Z,5.30
2019-04-22T13:39:43.221Z,4.20
2019-04-22T13:40:59.270Z,3.60
2019-04-22T13:41:49.731Z,7.50
2019-04-22T13:42:42.798Z,3.90
2019-04-22T13:43:42.896Z,4.80
2019-04-22T13:44:44.022Z,3.40
2019-04-22T13:45:43.629Z,5.00
2019-04-22T13:47:04.136Z,5.00
2019-04-22T13:47:59.642Z,5.70
2019-04-22T13:49:13.176Z,4.10
2019-04-22T13:50:21.033Z,3.70
2019-04-22T13:51:16.676Z,4.40
2019-04-22T13:52:21.038Z,4.50
2019-04-22T13:53:23.285Z,6.00
2019-04-22T13:54:36.427Z,5.90
2019-04-22T13:55:05.694Z,4.70
2019-04-22T13:56:00.690Z,5.50
2019-04-22T13:56:57.079Z,4.80
2019-04-22T13:57:57.141Z,3.90
2019-04-22T13:58:53.069Z,3.60
2019-04-22T13:59:48.077Z,5.30
2019-04-22T14:00:42.476Z,4.10
2019-04-22T14:01:42.938Z,3.90
2019-04-22T14:02:42.489Z,3.30
2019-04-22T14:03:41.599Z,4.70
2019-04-22T14:04:41.011Z,5.50
2019-04-22T14:05:40.945Z,5.30
2019-04-22T14:06:40.866Z,4.40
2019-04-22T14:07:41.201Z,4.20
2019-04-22T14:08:40.970Z,4.80
2019-04-22T14:09:42.233Z,4.30
2019-04-22T14:10:40.723Z,3.50
2019-04-22T14:11:49.841Z,3.40
2019-04-22T14:12:40.477Z,4.10
2019-04-22T14:13:41.737Z,6.20
2019-04-22T14:14:42.768Z,5.70
2019-04-22T14:15:40.359Z,4.30
2019-04-22T14:16:40.798Z,3.30
2019-04-22T14:17:40.997Z,3.60
2019-04-22T14:18:41.495Z,4.30
2019-04-22T14:19:39.989Z,3.50
2019-04-22T14:20:40.907Z,4.20
2019-04-22T14:21:42.544Z,3.40
2019-04-22T14:22:40.818Z,4.40
2019-04-22T14:23:40.533Z,3.20
2019-04-22T14:24:40.662Z,7.00
2019-04-22T14:25:40.846Z,3.50
2019-04-22T14:26:51.737Z,5.30
2019-04-22T14:27:48.596Z,3.70
2019-04-22T14:28:39.612Z,3.70
2019-04-22T14:29:39.783Z,3.50
2019-04-22T14:30:39.231Z,4.80